sensor_id;sensor_type;location;lat;lon;timestamp;P1;durP1;ratioP1;P2;durP2;ratioP2
26080;SDS011;13991;51.174;4.438;2022-12-08T00:01:13;18.43;;;7.87;;
26080;SDS011;13991;51.174;4.438;2022-12-08T00:03:42;19.57;;;8.17;;
26080;SDS011;13991;51.174;4.438;2022-12-08T00:11:50;19.40;;;9.67;;
26080;SDS011;13991;51.174;4.438;2022-12-08T00:14:26;17.60;;;8.43;;
26080;SDS011;13991;51.174;4.438;2022-12-08T00:17:14;19.03;;;7.77;;
26080;SDS011;13991;51.174;4.438;2022-12-08T00:19:42;15.70;;;8.27;;
26080;SDS011;13991;51.174;4.438;2022-12-08T00:22:09;16.07;;;8.43;;
26080;SDS011;13991;51.174;4.438;2022-12-08T00:24:36;17.43;;;9.03;;
26080;SDS011;13991;51.174;4.438;2022-12-08T00:27:06;19.47;;;8.77;;
26080;SDS011;13991;51.174;4.438;2022-12-08T00:29:38;20.87;;;9.83;;
26080;SDS011;13991;51.174;4.438;2022-12-08T00:32:07;29.10;;;10.90;;
26080;SDS011;13991;51.174;4.438;2022-12-08T00:34:36;25.70;;;10.33;;
26080;SDS011;13991;51.174;4.438;2022-12-08T00:37:02;24.53;;;10.93;;
26080;SDS011;13991;51.174;4.438;2022-12-08T00:39:28;26.90;;;11.37;;
26080;SDS011;13991;51.174;4.438;2022-12-08T00:42:00;24.73;;;11.60;;
26080;SDS011;13991;51.174;4.438;2022-12-08T00:44:43;22.53;;;10.87;;
26080;SDS011;13991;51.174;4.438;2022-12-08T00:47:10;29.30;;;12.87;;
26080;SDS011;13991;51.174;4.438;2022-12-08T00:49:51;25.57;;;13.07;;
26080;SDS011;13991;51.174;4.438;2022-12-08T00:52:16;47.53;;;13.63;;
26080;SDS011;13991;51.174;4.438;2022-12-08T00:54:42;26.97;;;12.60;;
26080;SDS011;13991;51.174;4.438;2022-12-08T00:57:12;28.83;;;13.50;;
26080;SDS011;13991;51.174;4.438;2022-12-08T00:59:38;38.60;;;14.87;;
26080;SDS011;13991;51.174;4.438;2022-12-08T01:02:05;38.60;;;15.90;;
26080;SDS011;13991;51.174;4.438;2022-12-08T01:04:31;30.87;;;14.07;;
26080;SDS011;13991;51.174;4.438;2022-12-08T01:06:57;32.37;;;13.70;;
26080;SDS011;13991;51.174;4.438;2022-12-08T01:09:25;33.00;;;14.13;;
26080;SDS011;13991;51.174;4.438;2022-12-08T01:11:51;28.60;;;13.57;;
26080;SDS011;13991;51.174;4.438;2022-12-08T01:14:17;29.67;;;13.20;;
26080;SDS011;13991;51.174;4.438;2022-12-08T01:16:44;36.07;;;14.17;;
26080;SDS011;13991;51.174;4.438;2022-12-08T01:19:11;28.77;;;13.90;;
26080;SDS011;13991;51.174;4.438;2022-12-08T01:21:41;29.73;;;13.47;;
26080;SDS011;13991;51.174;4.438;2022-12-08T01:24:09;33.03;;;15.00;;
26080;SDS011;13991;51.174;4.438;2022-12-08T01:26:39;31.23;;;13.53;;
26080;SDS011;13991;51.174;4.438;2022-12-08T01:29:13;28.07;;;13.57;;
26080;SDS011;13991;51.174;4.438;2022-12-08T01:31:51;39.80;;;15.50;;
26080;SDS011;13991;51.174;4.438;2022-12-08T01:34:17;25.30;;;13.30;;
26080;SDS011;13991;51.174;4.438;2022-12-08T01:36:43;32.03;;;13.87;;
26080;SDS011;13991;51.174;4.438;2022-12-08T01:39:17;27.30;;;13.70;;
26080;SDS011;13991;51.174;4.438;2022-12-08T01:41:44;31.63;;;13.67;;
26080;SDS011;13991;51.174;4.438;2022-12-08T01:46:38;38.47;;;13.83;;
26080;SDS011;13991;51.174;4.438;2022-12-08T01:49:12;32.10;;;14.57;;
26080;SDS011;13991;51.174;4.438;2022-12-08T01:51:57;33.10;;;14.33;;
26080;SDS011;13991;51.174;4.438;2022-12-08T01:54:31;32.70;;;12.17;;
26080;SDS011;13991;51.174;4.438;2022-12-08T01:57:10;29.90;;;12.83;;
26080;SDS011;13991;51.174;4.438;2022-12-08T01:59:46;28.83;;;12.87;;
26080;SDS011;13991;51.174;4.438;2022-12-08T02:02:18;26.57;;;11.83;;
26080;SDS011;13991;51.174;4.438;2022-12-08T02:04:49;30.43;;;12.13;;
26080;SDS011;13991;51.174;4.438;2022-12-08T02:07:14;24.87;;;11.83;;
26080;SDS011;13991;51.174;4.438;2022-12-08T02:09:41;26.23;;;10.93;;
26080;SDS011;13991;51.174;4.438;2022-12-08T02:12:10;30.10;;;11.67;;
26080;SDS011;13991;51.174;4.438;2022-12-08T02:14:39;33.70;;;12.47;;
26080;SDS011;13991;51.174;4.438;2022-12-08T02:17:15;35.70;;;11.60;;
26080;SDS011;13991;51.174;4.438;2022-12-08T02:20:04;26.50;;;10.77;;
26080;SDS011;13991;51.174;4.438;2022-12-08T02:23:10;33.43;;;11.70;;
26080;SDS011;13991;51.174;4.438;2022-12-08T02:36:39;24.03;;;9.90;;
26080;SDS011;13991;51.174;4.438;2022-12-08T02:44:54;28.67;;;10.97;;
26080;SDS011;13991;51.174;4.438;2022-12-08T02:47:26;26.07;;;10.37;;
26080;SDS011;13991;51.174;4.438;2022-12-08T02:49:54;26.47;;;11.17;;
26080;SDS011;13991;51.174;4.438;2022-12-08T02:55:01;27.13;;;11.17;;
26080;SDS011;13991;51.174;4.438;2022-12-08T03:00:55;34.47;;;10.70;;
26080;SDS011;13991;51.174;4.438;2022-12-08T03:03:47;28.13;;;10.20;;
26080;SDS011;13991;51.174;4.438;2022-12-08T03:09:38;24.67;;;10.43;;
26080;SDS011;13991;51.174;4.438;2022-12-08T03:15:10;28.10;;;10.17;;
26080;SDS011;13991;51.174;4.438;2022-12-08T03:17:40;22.13;;;10.23;;
26080;SDS011;13991;51.174;4.438;2022-12-08T03:20:10;19.70;;;9.37;;
26080;SDS011;13991;51.174;4.438;2022-12-08T03:22:41;28.23;;;9.80;;
26080;SDS011;13991;51.174;4.438;2022-12-08T03:25:09;37.27;;;10.77;;
26080;SDS011;13991;51.174;4.438;2022-12-08T03:27:38;25.43;;;10.77;;
26080;SDS011;13991;51.174;4.438;2022-12-08T03:30:04;23.30;;;9.90;;
26080;SDS011;13991;51.174;4.438;2022-12-08T03:32:48;24.87;;;9.87;;
26080;SDS011;13991;51.174;4.438;2022-12-08T03:35:23;20.50;;;9.43;;
26080;SDS011;13991;51.174;4.438;2022-12-08T03:37:50;28.13;;;10.20;;
26080;SDS011;13991;51.174;4.438;2022-12-08T03:40:27;24.57;;;9.67;;
26080;SDS011;13991;51.174;4.438;2022-12-08T03:42:53;18.07;;;8.50;;
26080;SDS011;13991;51.174;4.438;2022-12-08T03:45:19;24.93;;;10.10;;
26080;SDS011;13991;51.174;4.438;2022-12-08T03:47:45;19.53;;;9.03;;
26080;SDS011;13991;51.174;4.438;2022-12-08T03:50:11;22.23;;;8.77;;
26080;SDS011;13991;51.174;4.438;2022-12-08T03:52:36;22.57;;;8.80;;
26080;SDS011;13991;51.174;4.438;2022-12-08T03:55:02;16.07;;;8.57;;
26080;SDS011;13991;51.174;4.438;2022-12-08T03:57:29;31.27;;;8.13;;
26080;SDS011;13991;51.174;4.438;2022-12-08T03:59:57;27.27;;;8.50;;
26080;SDS011;13991;51.174;4.438;2022-12-08T04:02:24;23.50;;;8.77;;
26080;SDS011;13991;51.174;4.438;2022-12-08T04:04:50;25.93;;;8.53;;
26080;SDS011;13991;51.174;4.438;2022-12-08T04:07:18;22.67;;;8.20;;
26080;SDS011;13991;51.174;4.438;2022-12-08T04:10:10;28.70;;;8.40;;
26080;SDS011;13991;51.174;4.438;2022-12-08T04:12:38;20.00;;;7.97;;
26080;SDS011;13991;51.174;4.438;2022-12-08T04:15:06;19.37;;;8.37;;
26080;SDS011;13991;51.174;4.438;2022-12-08T04:17:50;22.87;;;7.80;;
26080;SDS011;13991;51.174;4.438;2022-12-08T04:20:18;18.43;;;7.33;;
26080;SDS011;13991;51.174;4.438;2022-12-08T04:22:44;15.87;;;7.63;;
26080;SDS011;13991;51.174;4.438;2022-12-08T04:25:12;18.77;;;6.63;;
26080;SDS011;13991;51.174;4.438;2022-12-08T04:27:40;23.60;;;6.60;;
26080;SDS011;13991;51.174;4.438;2022-12-08T04:30:07;21.57;;;6.20;;
26080;SDS011;13991;51.174;4.438;2022-12-08T04:32:33;22.60;;;7.10;;
26080;SDS011;13991;51.174;4.438;2022-12-08T04:34:59;14.10;;;5.93;;
26080;SDS011;13991;51.174;4.438;2022-12-08T04:37:26;10.53;;;5.43;;
26080;SDS011;13991;51.174;4.438;2022-12-08T04:39:52;10.87;;;6.33;;
26080;SDS011;13991;51.174;4.438;2022-12-08T04:42:22;19.53;;;5.67;;
26080;SDS011;13991;51.174;4.438;2022-12-08T04:44:47;13.83;;;5.53;;
26080;SDS011;13991;51.174;4.438;2022-12-08T04:47:13;15.13;;;5.03;;
26080;SDS011;13991;51.174;4.438;2022-12-08T04:49:39;23.23;;;7.20;;
26080;SDS011;13991;51.174;4.438;2022-12-08T04:52:07;13.63;;;5.17;;
26080;SDS011;13991;51.174;4.438;2022-12-08T04:54:33;19.73;;;5.70;;
26080;SDS011;13991;51.174;4.438;2022-12-08T04:57:06;18.30;;;5.80;;
26080;SDS011;13991;51.174;4.438;2022-12-08T04:59:32;14.73;;;5.20;;
26080;SDS011;13991;51.174;4.438;2022-12-08T05:02:01;16.57;;;5.13;;
26080;SDS011;13991;51.174;4.438;2022-12-08T05:04:30;16.10;;;4.60;;
26080;SDS011;13991;51.174;4.438;2022-12-08T05:06:58;15.63;;;4.90;;
26080;SDS011;13991;51.174;4.438;2022-12-08T05:09:24;10.43;;;5.07;;
26080;SDS011;13991;51.174;4.438;2022-12-08T05:11:59;16.37;;;4.77;;
26080;SDS011;13991;51.174;4.438;2022-12-08T05:14:26;14.40;;;5.07;;
26080;SDS011;13991;51.174;4.438;2022-12-08T05:16:57;10.83;;;4.00;;
26080;SDS011;13991;51.174;4.438;2022-12-08T05:19:26;15.30;;;5.27;;
26080;SDS011;13991;51.174;4.438;2022-12-08T05:21:54;11.20;;;4.10;;
26080;SDS011;13991;51.174;4.438;2022-12-08T05:24:21;12.17;;;5.07;;
26080;SDS011;13991;51.174;4.438;2022-12-08T05:27:08;14.37;;;4.63;;
26080;SDS011;13991;51.174;4.438;2022-12-08T05:29:38;11.93;;;5.47;;
26080;SDS011;13991;51.174;4.438;2022-12-08T05:32:06;19.43;;;5.33;;
26080;SDS011;13991;51.174;4.438;2022-12-08T05:34:35;19.17;;;6.37;;
26080;SDS011;13991;51.174;4.438;2022-12-08T05:37:02;15.70;;;6.80;;
26080;SDS011;13991;51.174;4.438;2022-12-08T05:39:28;15.77;;;6.13;;
26080;SDS011;13991;51.174;4.438;2022-12-08T05:41:55;16.80;;;6.50;;
26080;SDS011;13991;51.174;4.438;2022-12-08T05:44:20;18.23;;;6.17;;
26080;SDS011;13991;51.174;4.438;2022-12-08T05:46:46;17.60;;;6.63;;
26080;SDS011;13991;51.174;4.438;2022-12-08T05:49:27;21.23;;;6.93;;
26080;SDS011;13991;51.174;4.438;2022-12-08T05:51:53;24.80;;;7.40;;
26080;SDS011;13991;51.174;4.438;2022-12-08T05:54:21;17.13;;;7.53;;
26080;SDS011;13991;51.174;4.438;2022-12-08T05:56:48;10.83;;;6.27;;
26080;SDS011;13991;51.174;4.438;2022-12-08T05:59:18;23.43;;;8.53;;
26080;SDS011;13991;51.174;4.438;2022-12-08T06:01:45;28.53;;;8.10;;
26080;SDS011;13991;51.174;4.438;2022-12-08T06:04:14;22.30;;;9.40;;
26080;SDS011;13991;51.174;4.438;2022-12-08T06:06:40;18.63;;;8.63;;
26080;SDS011;13991;51.174;4.438;2022-12-08T06:09:06;20.67;;;8.47;;
26080;SDS011;13991;51.174;4.438;2022-12-08T06:11:33;23.67;;;9.60;;
26080;SDS011;13991;51.174;4.438;2022-12-08T06:13:59;20.23;;;9.63;;
26080;SDS011;13991;51.174;4.438;2022-12-08T06:16:27;27.77;;;10.50;;
26080;SDS011;13991;51.174;4.438;2022-12-08T06:18:54;24.77;;;10.03;;
26080;SDS011;13991;51.174;4.438;2022-12-08T06:21:21;31.73;;;9.57;;
26080;SDS011;13991;51.174;4.438;2022-12-08T06:23:48;29.47;;;10.30;;
26080;SDS011;13991;51.174;4.438;2022-12-08T06:26:15;34.03;;;9.23;;
26080;SDS011;13991;51.174;4.438;2022-12-08T06:28:41;27.20;;;8.47;;
26080;SDS011;13991;51.174;4.438;2022-12-08T06:31:09;33.77;;;10.43;;
26080;SDS011;13991;51.174;4.438;2022-12-08T06:33:37;23.60;;;10.70;;
26080;SDS011;13991;51.174;4.438;2022-12-08T06:36:04;23.53;;;9.87;;
26080;SDS011;13991;51.174;4.438;2022-12-08T06:38:30;21.53;;;9.80;;
26080;SDS011;13991;51.174;4.438;2022-12-08T06:40:57;29.77;;;10.83;;
26080;SDS011;13991;51.174;4.438;2022-12-08T06:43:23;25.40;;;10.03;;
26080;SDS011;13991;51.174;4.438;2022-12-08T06:45:50;23.10;;;10.07;;
26080;SDS011;13991;51.174;4.438;2022-12-08T06:48:16;28.40;;;10.93;;
26080;SDS011;13991;51.174;4.438;2022-12-08T06:50:42;29.60;;;10.43;;
26080;SDS011;13991;51.174;4.438;2022-12-08T06:53:11;23.43;;;9.73;;
26080;SDS011;13991;51.174;4.438;2022-12-08T06:55:46;24.07;;;10.17;;
26080;SDS011;13991;51.174;4.438;2022-12-08T06:58:15;24.67;;;10.17;;
26080;SDS011;13991;51.174;4.438;2022-12-08T07:00:41;28.30;;;10.57;;
26080;SDS011;13991;51.174;4.438;2022-12-08T07:03:09;22.77;;;10.17;;
26080;SDS011;13991;51.174;4.438;2022-12-08T07:05:36;26.03;;;10.37;;
26080;SDS011;13991;51.174;4.438;2022-12-08T07:08:04;29.40;;;9.70;;
26080;SDS011;13991;51.174;4.438;2022-12-08T07:10:31;24.10;;;9.53;;
26080;SDS011;13991;51.174;4.438;2022-12-08T07:12:58;29.37;;;10.13;;
26080;SDS011;13991;51.174;4.438;2022-12-08T07:15:25;26.90;;;9.77;;
26080;SDS011;13991;51.174;4.438;2022-12-08T07:17:51;30.33;;;9.93;;
26080;SDS011;13991;51.174;4.438;2022-12-08T07:20:16;29.37;;;9.50;;
26080;SDS011;13991;51.174;4.438;2022-12-08T07:22:51;22.53;;;9.93;;
26080;SDS011;13991;51.174;4.438;2022-12-08T07:25:17;21.37;;;9.43;;
26080;SDS011;13991;51.174;4.438;2022-12-08T07:27:50;25.77;;;9.90;;
26080;SDS011;13991;51.174;4.438;2022-12-08T07:30:17;23.10;;;9.53;;
26080;SDS011;13991;51.174;4.438;2022-12-08T07:32:43;29.27;;;10.30;;
26080;SDS011;13991;51.174;4.438;2022-12-08T07:35:09;43.67;;;10.57;;
26080;SDS011;13991;51.174;4.438;2022-12-08T07:37:35;28.80;;;10.40;;
26080;SDS011;13991;51.174;4.438;2022-12-08T07:40:02;28.23;;;10.23;;
26080;SDS011;13991;51.174;4.438;2022-12-08T07:42:29;24.60;;;9.53;;
26080;SDS011;13991;51.174;4.438;2022-12-08T07:44:55;25.53;;;9.57;;
26080;SDS011;13991;51.174;4.438;2022-12-08T07:47:21;34.50;;;9.60;;
26080;SDS011;13991;51.174;4.438;2022-12-08T07:49:48;27.53;;;10.43;;
26080;SDS011;13991;51.174;4.438;2022-12-08T07:52:16;37.83;;;9.50;;
26080;SDS011;13991;51.174;4.438;2022-12-08T07:54:53;28.93;;;10.77;;
26080;SDS011;13991;51.174;4.438;2022-12-08T07:57:24;26.47;;;9.23;;
26080;SDS011;13991;51.174;4.438;2022-12-08T07:59:55;24.23;;;9.70;;
26080;SDS011;13991;51.174;4.438;2022-12-08T08:02:23;26.10;;;9.13;;
26080;SDS011;13991;51.174;4.438;2022-12-08T08:04:58;22.07;;;9.27;;
26080;SDS011;13991;51.174;4.438;2022-12-08T08:07:29;24.20;;;9.07;;
26080;SDS011;13991;51.174;4.438;2022-12-08T08:10:00;25.50;;;8.97;;
26080;SDS011;13991;51.174;4.438;2022-12-08T08:12:26;20.10;;;9.20;;
26080;SDS011;13991;51.174;4.438;2022-12-08T08:14:51;23.60;;;9.10;;
26080;SDS011;13991;51.174;4.438;2022-12-08T08:17:19;30.83;;;8.90;;
26080;SDS011;13991;51.174;4.438;2022-12-08T08:19:47;22.27;;;9.00;;
26080;SDS011;13991;51.174;4.438;2022-12-08T08:22:16;25.00;;;8.57;;
26080;SDS011;13991;51.174;4.438;2022-12-08T08:24:42;27.27;;;8.47;;
26080;SDS011;13991;51.174;4.438;2022-12-08T08:27:10;20.23;;;8.70;;
26080;SDS011;13991;51.174;4.438;2022-12-08T08:29:41;24.73;;;8.10;;
26080;SDS011;13991;51.174;4.438;2022-12-08T08:32:07;23.37;;;7.73;;
26080;SDS011;13991;51.174;4.438;2022-12-08T08:34:37;18.23;;;7.63;;
26080;SDS011;13991;51.174;4.438;2022-12-08T08:37:10;21.97;;;7.73;;
26080;SDS011;13991;51.174;4.438;2022-12-08T08:39:36;18.63;;;7.60;;
26080;SDS011;13991;51.174;4.438;2022-12-08T08:42:12;16.93;;;8.43;;
26080;SDS011;13991;51.174;4.438;2022-12-08T08:44:38;24.30;;;7.60;;
26080;SDS011;13991;51.174;4.438;2022-12-08T08:47:04;22.20;;;7.07;;
26080;SDS011;13991;51.174;4.438;2022-12-08T08:49:32;25.13;;;7.70;;
26080;SDS011;13991;51.174;4.438;2022-12-08T08:52:05;19.67;;;7.20;;
26080;SDS011;13991;51.174;4.438;2022-12-08T08:54:31;18.63;;;7.30;;
26080;SDS011;13991;51.174;4.438;2022-12-08T08:57:04;21.43;;;6.80;;
26080;SDS011;13991;51.174;4.438;2022-12-08T08:59:30;18.93;;;8.20;;
26080;SDS011;13991;51.174;4.438;2022-12-08T09:01:56;20.00;;;6.27;;
26080;SDS011;13991;51.174;4.438;2022-12-08T09:04:24;29.20;;;7.50;;
26080;SDS011;13991;51.174;4.438;2022-12-08T09:06:57;22.37;;;6.97;;
26080;SDS011;13991;51.174;4.438;2022-12-08T09:09:29;18.50;;;7.07;;
26080;SDS011;13991;51.174;4.438;2022-12-08T09:11:58;22.57;;;7.50;;
26080;SDS011;13991;51.174;4.438;2022-12-08T09:14:28;23.37;;;6.70;;
26080;SDS011;13991;51.174;4.438;2022-12-08T09:16:55;16.20;;;7.13;;
26080;SDS011;13991;51.174;4.438;2022-12-08T09:19:23;21.70;;;7.00;;
26080;SDS011;13991;51.174;4.438;2022-12-08T09:21:49;25.00;;;7.30;;
26080;SDS011;13991;51.174;4.438;2022-12-08T09:24:16;15.67;;;6.63;;
26080;SDS011;13991;51.174;4.438;2022-12-08T09:26:44;20.83;;;6.97;;
26080;SDS011;13991;51.174;4.438;2022-12-08T09:29:13;27.40;;;7.57;;
26080;SDS011;13991;51.174;4.438;2022-12-08T09:31:39;20.07;;;6.20;;
26080;SDS011;13991;51.174;4.438;2022-12-08T09:34:16;26.23;;;6.63;;
26080;SDS011;13991;51.174;4.438;2022-12-08T09:36:42;16.20;;;6.37;;
26080;SDS011;13991;51.174;4.438;2022-12-08T09:39:10;17.23;;;6.40;;
26080;SDS011;13991;51.174;4.438;2022-12-08T09:41:49;19.90;;;6.80;;
26080;SDS011;13991;51.174;4.438;2022-12-08T09:44:47;20.23;;;7.17;;
26080;SDS011;13991;51.174;4.438;2022-12-08T09:47:36;18.50;;;6.93;;
26080;SDS011;13991;51.174;4.438;2022-12-08T09:53:15;19.80;;;6.47;;
26080;SDS011;13991;51.174;4.438;2022-12-08T09:55:46;20.00;;;6.60;;
26080;SDS011;13991;51.174;4.438;2022-12-08T09:58:34;25.30;;;5.83;;
26080;SDS011;13991;51.174;4.438;2022-12-08T10:01:03;24.57;;;7.37;;
26080;SDS011;13991;51.174;4.438;2022-12-08T10:03:32;14.83;;;5.77;;
26080;SDS011;13991;51.174;4.438;2022-12-08T10:06:20;18.60;;;5.90;;
26080;SDS011;13991;51.174;4.438;2022-12-08T10:11:29;10.40;;;5.17;;
26080;SDS011;13991;51.174;4.438;2022-12-08T10:17:03;16.37;;;5.60;;
26080;SDS011;13991;51.174;4.438;2022-12-08T10:20:12;18.67;;;5.63;;
26080;SDS011;13991;51.174;4.438;2022-12-08T10:22:41;16.30;;;5.33;;
26080;SDS011;13991;51.174;4.438;2022-12-08T10:27:35;29.40;;;6.20;;
26080;SDS011;13991;51.174;4.438;2022-12-08T10:30:08;20.37;;;5.57;;
26080;SDS011;13991;51.174;4.438;2022-12-08T10:32:38;27.07;;;7.33;;
26080;SDS011;13991;51.174;4.438;2022-12-08T10:37:36;16.00;;;6.40;;
26080;SDS011;13991;51.174;4.438;2022-12-08T10:42:59;22.20;;;6.63;;
26080;SDS011;13991;51.174;4.438;2022-12-08T10:48:26;16.47;;;6.23;;
26080;SDS011;13991;51.174;4.438;2022-12-08T10:50:54;19.77;;;6.03;;
26080;SDS011;13991;51.174;4.438;2022-12-08T10:53:32;18.07;;;6.30;;
26080;SDS011;13991;51.174;4.438;2022-12-08T10:56:15;13.67;;;6.30;;
26080;SDS011;13991;51.174;4.438;2022-12-08T10:58:42;20.33;;;6.43;;
26080;SDS011;13991;51.174;4.438;2022-12-08T11:03:58;17.37;;;6.77;;
26080;SDS011;13991;51.174;4.438;2022-12-08T11:06:29;20.33;;;5.90;;
26080;SDS011;13991;51.174;4.438;2022-12-08T11:22:32;19.23;;;7.30;;
26080;SDS011;13991;51.174;4.438;2022-12-08T11:27:25;26.30;;;6.77;;
26080;SDS011;13991;51.174;4.438;2022-12-08T11:29:51;21.23;;;7.23;;
26080;SDS011;13991;51.174;4.438;2022-12-08T11:32:17;17.80;;;7.97;;
26080;SDS011;13991;51.174;4.438;2022-12-08T11:34:44;21.17;;;7.77;;
26080;SDS011;13991;51.174;4.438;2022-12-08T11:37:21;29.50;;;7.70;;
26080;SDS011;13991;51.174;4.438;2022-12-08T11:39:48;21.10;;;8.17;;
26080;SDS011;13991;51.174;4.438;2022-12-08T11:43:01;23.87;;;7.43;;
26080;SDS011;13991;51.174;4.438;2022-12-08T11:45:36;23.23;;;7.73;;
26080;SDS011;13991;51.174;4.438;2022-12-08T11:48:10;15.27;;;6.70;;
26080;SDS011;13991;51.174;4.438;2022-12-08T11:50:55;25.50;;;7.80;;
26080;SDS011;13991;51.174;4.438;2022-12-08T11:56:25;20.40;;;7.57;;
26080;SDS011;13991;51.174;4.438;2022-12-08T12:01:42;21.67;;;8.03;;
26080;SDS011;13991;51.174;4.438;2022-12-08T12:06:42;25.07;;;8.90;;
26080;SDS011;13991;51.174;4.438;2022-12-08T12:18:00;29.97;;;8.50;;
26080;SDS011;13991;51.174;4.438;2022-12-08T12:20:38;22.87;;;8.40;;
26080;SDS011;13991;51.174;4.438;2022-12-08T12:23:15;26.17;;;7.70;;
26080;SDS011;13991;51.174;4.438;2022-12-08T12:26:15;17.73;;;7.43;;
26080;SDS011;13991;51.174;4.438;2022-12-08T12:31:25;28.83;;;8.10;;
26080;SDS011;13991;51.174;4.438;2022-12-08T12:34:42;20.00;;;7.77;;
26080;SDS011;13991;51.174;4.438;2022-12-08T12:37:11;24.00;;;8.87;;
26080;SDS011;13991;51.174;4.438;2022-12-08T12:47:48;8.30;;;3.67;;
26080;SDS011;13991;51.174;4.438;2022-12-08T12:53:03;6.93;;;2.90;;
26080;SDS011;13991;51.174;4.438;2022-12-08T12:58:19;5.87;;;3.20;;
26080;SDS011;13991;51.174;4.438;2022-12-08T13:06:08;6.40;;;2.40;;
26080;SDS011;13991;51.174;4.438;2022-12-08T13:08:53;2.83;;;1.43;;
26080;SDS011;13991;51.174;4.438;2022-12-08T13:11:20;3.60;;;1.80;;
26080;SDS011;13991;51.174;4.438;2022-12-08T13:14:01;5.93;;;1.83;;
26080;SDS011;13991;51.174;4.438;2022-12-08T13:16:36;4.50;;;1.50;;
26080;SDS011;13991;51.174;4.438;2022-12-08T13:19:03;2.57;;;1.47;;
26080;SDS011;13991;51.174;4.438;2022-12-08T13:21:37;5.97;;;1.47;;
26080;SDS011;13991;51.174;4.438;2022-12-08T13:26:43;2.53;;;1.63;;
26080;SDS011;13991;51.174;4.438;2022-12-08T13:29:20;5.60;;;1.60;;
26080;SDS011;13991;51.174;4.438;2022-12-08T13:34:14;8.03;;;2.23;;
26080;SDS011;13991;51.174;4.438;2022-12-08T13:36:49;4.57;;;1.97;;
26080;SDS011;13991;51.174;4.438;2022-12-08T13:39:43;17.70;;;1.90;;
26080;SDS011;13991;51.174;4.438;2022-12-08T13:45:12;7.33;;;2.10;;
26080;SDS011;13991;51.174;4.438;2022-12-08T13:47:54;4.50;;;2.30;;
26080;SDS011;13991;51.174;4.438;2022-12-08T13:53:29;6.70;;;1.97;;
26080;SDS011;13991;51.174;4.438;2022-12-08T13:56:01;6.10;;;1.80;;
26080;SDS011;13991;51.174;4.438;2022-12-08T13:58:28;1.87;;;0.97;;
26080;SDS011;13991;51.174;4.438;2022-12-08T14:03:46;5.97;;;1.10;;
26080;SDS011;13991;51.174;4.438;2022-12-08T14:08:59;17.20;;;1.17;;
26080;SDS011;13991;51.174;4.438;2022-12-08T14:11:29;3.20;;;1.10;;
26080;SDS011;13991;51.174;4.438;2022-12-08T14:14:00;4.77;;;1.10;;
26080;SDS011;13991;51.174;4.438;2022-12-08T14:16:28;3.37;;;1.60;;
26080;SDS011;13991;51.174;4.438;2022-12-08T14:22:00;5.17;;;1.97;;
26080;SDS011;13991;51.174;4.438;2022-12-08T14:24:34;6.40;;;2.60;;
26080;SDS011;13991;51.174;4.438;2022-12-08T14:27:00;5.43;;;2.97;;
26080;SDS011;13991;51.174;4.438;2022-12-08T14:32:43;14.13;;;4.50;;
26080;SDS011;13991;51.174;4.438;2022-12-08T14:35:31;13.70;;;3.80;;
26080;SDS011;13991;51.174;4.438;2022-12-08T14:37:59;13.70;;;4.47;;
26080;SDS011;13991;51.174;4.438;2022-12-08T14:45:33;8.93;;;4.47;;
26080;SDS011;13991;51.174;4.438;2022-12-08T14:53:41;5.77;;;3.23;;
26080;SDS011;13991;51.174;4.438;2022-12-08T14:58:46;9.73;;;3.67;;
26080;SDS011;13991;51.174;4.438;2022-12-08T15:01:14;8.77;;;2.97;;
26080;SDS011;13991;51.174;4.438;2022-12-08T15:03:44;10.33;;;3.63;;
26080;SDS011;13991;51.174;4.438;2022-12-08T15:06:12;7.23;;;2.97;;
26080;SDS011;13991;51.174;4.438;2022-12-08T15:08:55;6.70;;;3.20;;
26080;SDS011;13991;51.174;4.438;2022-12-08T15:11:28;11.30;;;3.60;;
26080;SDS011;13991;51.174;4.438;2022-12-08T15:13:56;8.90;;;3.50;;
26080;SDS011;13991;51.174;4.438;2022-12-08T15:16:42;17.83;;;4.57;;
26080;SDS011;13991;51.174;4.438;2022-12-08T15:19:18;14.00;;;4.57;;
26080;SDS011;13991;51.174;4.438;2022-12-08T15:21:52;12.33;;;4.60;;
26080;SDS011;13991;51.174;4.438;2022-12-08T15:24:21;12.30;;;3.63;;
26080;SDS011;13991;51.174;4.438;2022-12-08T15:26:49;10.27;;;4.27;;
26080;SDS011;13991;51.174;4.438;2022-12-08T15:31:50;13.57;;;3.57;;
26080;SDS011;13991;51.174;4.438;2022-12-08T15:34:18;11.70;;;4.03;;
26080;SDS011;13991;51.174;4.438;2022-12-08T15:36:45;8.13;;;4.07;;
26080;SDS011;13991;51.174;4.438;2022-12-08T15:39:34;6.80;;;3.27;;
26080;SDS011;13991;51.174;4.438;2022-12-08T15:42:00;12.57;;;4.40;;
26080;SDS011;13991;51.174;4.438;2022-12-08T15:44:27;9.83;;;4.53;;
26080;SDS011;13991;51.174;4.438;2022-12-08T15:46:56;17.30;;;4.73;;
26080;SDS011;13991;51.174;4.438;2022-12-08T15:49:22;12.57;;;4.50;;
26080;SDS011;13991;51.174;4.438;2022-12-08T15:51:55;15.53;;;4.10;;
26080;SDS011;13991;51.174;4.438;2022-12-08T15:54:20;17.83;;;4.47;;
26080;SDS011;13991;51.174;4.438;2022-12-08T15:56:53;9.30;;;4.13;;
26080;SDS011;13991;51.174;4.438;2022-12-08T15:59:21;11.17;;;4.00;;
26080;SDS011;13991;51.174;4.438;2022-12-08T16:01:49;7.13;;;4.40;;
26080;SDS011;13991;51.174;4.438;2022-12-08T16:04:16;5.93;;;3.93;;
26080;SDS011;13991;51.174;4.438;2022-12-08T16:06:48;9.57;;;4.23;;
26080;SDS011;13991;51.174;4.438;2022-12-08T16:09:19;12.63;;;4.37;;
26080;SDS011;13991;51.174;4.438;2022-12-08T16:12:00;10.40;;;4.73;;
26080;SDS011;13991;51.174;4.438;2022-12-08T16:14:45;10.03;;;3.93;;
26080;SDS011;13991;51.174;4.438;2022-12-08T16:17:15;9.37;;;3.90;;
26080;SDS011;13991;51.174;4.438;2022-12-08T16:19:41;12.37;;;4.50;;
26080;SDS011;13991;51.174;4.438;2022-12-08T16:22:14;14.32;;;6.10;;
26080;SDS011;13991;51.174;4.438;2022-12-08T16:24:45;11.67;;;4.93;;
26080;SDS011;13991;51.174;4.438;2022-12-08T16:27:30;8.37;;;4.53;;
26080;SDS011;13991;51.174;4.438;2022-12-08T16:29:58;12.90;;;4.87;;
26080;SDS011;13991;51.174;4.438;2022-12-08T16:32:24;9.17;;;4.17;;
26080;SDS011;13991;51.174;4.438;2022-12-08T16:34:56;8.60;;;4.20;;
26080;SDS011;13991;51.174;4.438;2022-12-08T16:37:25;13.37;;;4.47;;
26080;SDS011;13991;51.174;4.438;2022-12-08T16:39:52;8.67;;;4.47;;
26080;SDS011;13991;51.174;4.438;2022-12-08T16:42:20;11.80;;;4.00;;
26080;SDS011;13991;51.174;4.438;2022-12-08T16:47:48;17.67;;;4.50;;
26080;SDS011;13991;51.174;4.438;2022-12-08T16:50:22;15.00;;;4.00;;
26080;SDS011;13991;51.174;4.438;2022-12-08T16:53:05;6.43;;;2.90;;
26080;SDS011;13991;51.174;4.438;2022-12-08T16:55:34;7.83;;;2.87;;
26080;SDS011;13991;51.174;4.438;2022-12-08T16:58:00;7.17;;;2.93;;
26080;SDS011;13991;51.174;4.438;2022-12-08T17:00:27;9.67;;;3.17;;
26080;SDS011;13991;51.174;4.438;2022-12-08T17:02:54;7.90;;;3.40;;
26080;SDS011;13991;51.174;4.438;2022-12-08T17:05:22;8.03;;;2.73;;
26080;SDS011;13991;51.174;4.438;2022-12-08T17:07:49;7.33;;;2.57;;
26080;SDS011;13991;51.174;4.438;2022-12-08T17:10:20;9.43;;;2.90;;
26080;SDS011;13991;51.174;4.438;2022-12-08T17:12:48;8.70;;;3.27;;
26080;SDS011;13991;51.174;4.438;2022-12-08T17:15:15;6.10;;;3.07;;
26080;SDS011;13991;51.174;4.438;2022-12-08T17:17:42;10.97;;;3.23;;
26080;SDS011;13991;51.174;4.438;2022-12-08T17:20:10;10.77;;;3.47;;
26080;SDS011;13991;51.174;4.438;2022-12-08T17:22:42;9.43;;;3.53;;
26080;SDS011;13991;51.174;4.438;2022-12-08T17:25:08;5.97;;;3.63;;
26080;SDS011;13991;51.174;4.438;2022-12-08T17:27:34;11.03;;;4.20;;
26080;SDS011;13991;51.174;4.438;2022-12-08T17:30:00;9.10;;;3.23;;